Terminal Aerodrome Forecast
Issued by NWS

Home | Current Version | Previous Version | Text Only | Print | Product List | Glossary On
Versions: 1 2 3 4 5 6 7 8 9 10 11 12 13 14 15 16 17 18 19 20 21 22 23 24 25 26 27 28 29 30 31 32
000
FTUS43 KGRB 211731
TAFRHI
TAF
KRHI 211731Z 2118/2218 18008KT P6SM SCT018 SCT090
     FM212300 21004KT P6SM SHRA SCT035 OVC080
      TEMPO 2123/2203 1SM +TSRA BKN018CB
     FM220300 29004KT 6SM -SHRA BR OVC016
     FM220700 31006KT P6SM BKN017
     FM221400 31011G16KT P6SM SCT030=

USA.gov is the U.S. government's official web portal to all federal, state and local government web resources and services.